Time;durP1;ratioP1;P1;durP2;ratioP2;P2;SDS_P1;SDS_P2;PMS_P1;PMS_P2;Temp;Humidity;BMP_temperature;BMP_pressure;BME280_temperature;BME280_humidity;BME280_pressure;Samples;Min_cycle;Max_cycle;Signal;HPM_P1;HPM_P2
2023/12/23 00:00:03;;;;;;;3.10;1.10;;;11.60;69.20;;;;;;5002022;28;20185;-60
2023/12/23 00:02:28;;;;;;;5.00;1.10;;;11.70;69.60;;;;;;5002632;28;20530;-62
2023/12/23 00:04:54;;;;;;;7.23;1.17;;;11.70;68.80;;;;;;5001042;28;20935;-60
2023/12/23 00:07:19;;;;;;;3.07;1.57;;;11.60;69.30;;;;;;5003229;28;20567;-60
2023/12/23 00:09:45;;;;;;;2.07;1.00;;;11.60;69.60;;;;;;5004274;28;20243;-61
2023/12/23 00:12:10;;;;;;;3.63;1.60;;;11.70;69.60;;;;;;5001820;28;20808;-61
2023/12/23 00:14:36;;;;;;;3.10;1.40;;;11.70;69.10;;;;;;5004234;28;20550;-61
2023/12/23 00:17:02;;;;;;;2.60;0.93;;;11.70;69.10;;;;;;5002190;28;20563;-60
2023/12/23 00:19:28;;;;;;;4.30;1.30;;;11.80;69.00;;;;;;5003706;28;20233;-60
2023/12/23 00:21:54;;;;;;;5.93;1.07;;;11.80;69.60;;;;;;5003334;28;20469;-61
2023/12/23 00:24:20;;;;;;;4.20;1.40;;;11.90;70.10;;;;;;5002847;28;20234;-63
2023/12/23 00:26:46;;;;;;;1.87;1.20;;;11.90;70.70;;;;;;5003918;28;20951;-60
2023/12/23 00:29:11;;;;;;;2.53;1.10;;;11.60;71.10;;;;;;5001228;28;20190;-59
2023/12/23 00:31:37;;;;;;;4.83;1.53;;;11.40;72.50;;;;;;5004765;28;20745;-61
2023/12/23 00:34:02;;;;;;;3.90;0.90;;;11.60;71.70;;;;;;5001899;28;20245;-59
2023/12/23 00:36:28;;;;;;;1.17;0.90;;;11.60;71.80;;;;;;5003134;28;20216;-60
2023/12/23 00:38:54;;;;;;;3.07;0.83;;;11.60;72.60;;;;;;5001712;28;20182;-61
2023/12/23 00:41:19;;;;;;;6.83;1.70;;;11.70;72.30;;;;;;5003335;28;20522;-62
2023/12/23 00:43:45;;;;;;;2.43;1.60;;;11.70;72.20;;;;;;5004191;28;20186;-60
2023/12/23 00:46:10;;;;;;;1.97;1.10;;;11.80;72.30;;;;;;5000539;28;20241;-62
2023/12/23 00:48:37;;;;;;;3.03;1.30;;;11.60;71.80;;;;;;5004002;28;20193;-60
2023/12/23 00:51:03;;;;;;;3.73;1.33;;;11.70;72.70;;;;;;5001696;28;21307;-61
2023/12/23 00:53:29;;;;;;;5.03;1.50;;;11.60;72.90;;;;;;5003706;28;20421;-60
2023/12/23 00:55:55;;;;;;;1.40;1.30;;;11.40;73.60;;;;;;4997064;28;20440;-59
2023/12/23 00:58:20;;;;;;;3.33;1.40;;;11.40;74.70;;;;;;5001984;28;20182;-63
2023/12/23 01:00:46;;;;;;;2.57;1.13;;;11.20;75.60;;;;;;5003535;28;20760;-60
2023/12/23 01:03:12;;;;;;;1.03;0.93;;;11.20;75.90;;;;;;4999970;28;20171;-62
2023/12/23 01:05:38;;;;;;;2.30;1.00;;;11.00;77.50;;;;;;5003488;28;20659;-61
2023/12/23 01:08:03;;;;;;;3.60;1.20;;;11.20;77.10;;;;;;5000832;28;20933;-61
2023/12/23 01:10:29;;;;;;;2.53;1.40;;;11.20;77.80;;;;;;5003565;28;20842;-61
2023/12/23 01:12:55;;;;;;;2.23;1.20;;;11.30;77.10;;;;;;5002452;28;20212;-60
2023/12/23 01:15:20;;;;;;;1.43;1.13;;;11.40;76.10;;;;;;5001433;28;20206;-60
2023/12/23 01:17:46;;;;;;;2.80;1.10;;;11.40;75.60;;;;;;5003538;28;20197;-62
2023/12/23 01:20:11;;;;;;;1.70;1.13;;;11.50;75.40;;;;;;5000463;28;20695;-62
2023/12/23 01:22:37;;;;;;;3.27;1.63;;;11.40;73.70;;;;;;5003949;28;20308;-61
2023/12/23 01:25:03;;;;;;;4.00;1.13;;;11.40;73.70;;;;;;5000407;28;20561;-59
2023/12/23 01:27:29;;;;;;;1.53;1.00;;;11.40;73.30;;;;;;5003219;28;20803;-63
2023/12/23 01:29:54;;;;;;;3.27;1.40;;;11.30;74.10;;;;;;5003989;28;20193;-62
2023/12/23 01:32:20;;;;;;;2.70;1.10;;;11.20;73.30;;;;;;5001841;28;20190;-63
2023/12/23 01:34:47;;;;;;;2.50;1.10;;;11.10;72.80;;;;;;5002700;28;20201;-61
2023/12/23 01:37:13;;;;;;;2.53;1.20;;;11.20;73.20;;;;;;5000786;28;20948;-61
2023/12/23 01:39:38;;;;;;;3.43;1.30;;;11.30;73.00;;;;;;5003453;28;20432;-62
2023/12/23 01:42:04;;;;;;;2.00;1.10;;;11.10;72.20;;;;;;5001653;28;20288;-61
2023/12/23 01:44:30;;;;;;;2.00;0.97;;;11.10;72.80;;;;;;5002706;28;20194;-63
2023/12/23 01:46:56;;;;;;;2.70;1.10;;;11.00;72.60;;;;;;5001695;28;20711;-59
2023/12/23 01:49:23;;;;;;;4.67;1.20;;;11.00;72.60;;;;;;5001439;28;20221;-62
2023/12/23 01:51:49;;;;;;;2.60;1.10;;;11.20;72.90;;;;;;5002423;28;20963;-60
2023/12/23 01:54:16;;;;;;;2.63;1.13;;;11.20;72.40;;;;;;5001118;28;20484;-60
2023/12/23 01:56:43;;;;;;;8.63;1.80;;;11.30;73.00;;;;;;5002388;28;20447;-62
2023/12/23 01:59:09;;;;;;;2.63;1.30;;;11.20;73.30;;;;;;5002825;28;20929;-60
2023/12/23 02:01:36;;;;;;;3.50;1.50;;;11.20;73.50;;;;;;5001166;28;20507;-62
2023/12/23 02:04:02;;;;;;;3.00;1.30;;;11.10;74.30;;;;;;5000536;28;20208;-61
2023/12/23 02:06:28;;;;;;;4.20;1.57;;;11.10;73.30;;;;;;5001538;28;20852;-59
2023/12/23 02:08:54;;;;;;;5.93;1.40;;;11.10;73.60;;;;;;5001244;28;20432;-59
2023/12/23 02:11:29;;;;;;;2.90;1.30;;;11.10;73.80;;;;;;5004401;28;20183;-61
2023/12/23 02:14:09;;;;;;;5.63;1.70;;;11.10;72.90;;;;;;5001469;28;20591;-60
2023/12/23 02:16:36;;;;;;;5.80;1.70;;;11.20;72.40;;;;;;4997473;28;20445;-60
2023/12/23 02:19:01;;;;;;;3.07;1.23;;;11.10;72.50;;;;;;5000092;28;20464;-60
2023/12/23 02:21:27;;;;;;;5.27;1.53;;;11.10;72.50;;;;;;5001774;28;20498;-60
2023/12/23 02:23:52;;;;;;;4.13;1.70;;;11.00;72.30;;;;;;5001524;28;20240;-60
2023/12/23 02:26:22;;;;;;;6.53;1.43;;;11.30;72.10;;;;;;4999858;28;20198;-60
2023/12/23 02:28:51;;;;;;;5.00;1.47;;;11.50;71.60;;;;;;5001621;28;20186;-59
2023/12/23 02:31:18;;;;;;;6.40;2.23;;;11.40;71.00;;;;;;5001689;28;20414;-60
2023/12/23 02:33:46;;;;;;;3.10;1.20;;;11.40;70.70;;;;;;5002711;28;20416;-61
2023/12/23 02:36:12;;;;;;;2.80;1.10;;;11.30;70.80;;;;;;4998687;28;20994;-60
2023/12/23 02:38:37;;;;;;;3.90;1.10;;;11.30;70.50;;;;;;5002341;28;20421;-60
2023/12/23 02:41:03;;;;;;;1.63;1.30;;;11.20;71.70;;;;;;5000560;28;20661;-61
2023/12/23 02:43:28;;;;;;;2.87;1.17;;;11.10;72.70;;;;;;5001871;28;20186;-59
2023/12/23 02:45:54;;;;;;;3.17;1.43;;;11.20;73.40;;;;;;5000135;28;20202;-60
2023/12/23 02:48:20;;;;;;;4.93;1.50;;;11.30;74.00;;;;;;5000205;28;20219;-61
2023/12/23 02:50:45;;;;;;;3.60;1.40;;;11.30;73.60;;;;;;5002250;28;20189;-60
2023/12/23 02:53:11;;;;;;;4.97;1.13;;;11.10;73.70;;;;;;4999182;28;20186;-60
2023/12/23 02:55:36;;;;;;;3.03;1.23;;;11.30;73.60;;;;;;5001671;28;20779;-60
2023/12/23 02:58:02;;;;;;;3.93;1.27;;;11.60;72.20;;;;;;4999389;28;20935;-60
2023/12/23 03:00:28;;;;;;;3.10;1.33;;;11.30;70.90;;;;;;5001391;28;20697;-60
2023/12/23 03:02:53;;;;;;;4.40;2.13;;;11.40;70.80;;;;;;5000856;28;20189;-60
2023/12/23 03:05:19;;;;;;;2.40;1.10;;;11.20;71.10;;;;;;4999391;28;20225;-60
2023/12/23 03:07:44;;;;;;;2.97;1.30;;;11.30;71.30;;;;;;5001883;28;20197;-60
2023/12/23 03:10:10;;;;;;;7.00;2.10;;;11.60;70.80;;;;;;4998873;28;20194;-61
2023/12/23 03:12:36;;;;;;;2.40;1.37;;;11.70;69.40;;;;;;5002166;28;20178;-60
2023/12/23 03:15:02;;;;;;;4.17;1.50;;;11.50;69.60;;;;;;4999028;28;20186;-61
2023/12/23 03:17:28;;;;;;;2.80;1.53;;;11.50;69.50;;;;;;5001350;28;20533;-60
2023/12/23 03:19:55;;;;;;;3.23;1.63;;;11.60;69.80;;;;;;5000173;28;20511;-59
2023/12/23 03:22:21;;;;;;;3.50;1.30;;;11.80;69.30;;;;;;5000258;28;20182;-60
2023/12/23 03:24:46;;;;;;;4.63;1.60;;;11.80;68.50;;;;;;5004887;28;20432;-60
2023/12/23 03:27:12;;;;;;;7.07;1.57;;;11.50;68.20;;;;;;5002984;28;20223;-59
2023/12/23 03:29:37;;;;;;;7.87;1.30;;;11.20;68.50;;;;;;5007858;28;20539;-59
2023/12/23 03:32:03;;;;;;;4.10;1.30;;;11.40;69.60;;;;;;5003253;28;20272;-59
2023/12/23 03:34:28;;;;;;;3.73;1.20;;;11.70;69.00;;;;;;5004599;28;20190;-61
2023/12/23 03:36:54;;;;;;;5.50;1.80;;;11.80;68.00;;;;;;5004311;28;20211;-60
2023/12/23 03:39:20;;;;;;;1.57;1.30;;;11.70;67.60;;;;;;5003518;28;20642;-59
2023/12/23 03:41:45;;;;;;;1.83;1.60;;;11.70;68.00;;;;;;5006459;28;20228;-61
2023/12/23 03:44:11;;;;;;;6.00;1.60;;;11.40;68.10;;;;;;5002379;28;20206;-59
2023/12/23 03:46:36;;;;;;;3.83;1.57;;;11.60;68.50;;;;;;5005107;28;20205;-60
2023/12/23 03:49:02;;;;;;;4.60;1.77;;;11.70;67.50;;;;;;5002684;28;20182;-61
2023/12/23 03:51:27;;;;;;;6.23;2.30;;;11.70;67.50;;;;;;5004764;28;20187;-59
2023/12/23 03:53:53;;;;;;;2.63;1.17;;;11.60;67.40;;;;;;5004329;28;20350;-60
2023/12/23 03:56:18;;;;;;;3.97;1.30;;;11.50;68.30;;;;;;5002715;28;20297;-60
2023/12/23 03:58:44;;;;;;;1.40;1.30;;;11.40;68.80;;;;;;5004993;28;20193;-60
2023/12/23 04:01:10;;;;;;;5.03;1.20;;;11.50;68.50;;;;;;5002196;28;20214;-59
2023/12/23 04:03:36;;;;;;;4.63;1.70;;;11.50;68.40;;;;;;5005231;28;20216;-60
2023/12/23 04:06:02;;;;;;;1.73;1.33;;;11.60;67.80;;;;;;5002263;28;20468;-60
2023/12/23 04:08:27;;;;;;;3.70;1.43;;;11.40;67.80;;;;;;5004141;28;20198;-60
2023/12/23 04:10:53;;;;;;;2.83;1.13;;;11.50;68.70;;;;;;5003984;28;20421;-60
2023/12/23 04:13:19;;;;;;;1.80;1.30;;;11.30;68.20;;;;;;5002940;28;20187;-60
2023/12/23 04:15:44;;;;;;;2.23;1.27;;;11.30;68.80;;;;;;5004610;28;20202;-60
2023/12/23 04:18:10;;;;;;;4.03;1.73;;;11.60;69.10;;;;;;5001531;28;20602;-59
2023/12/23 04:20:35;;;;;;;2.43;2.30;;;11.80;68.00;;;;;;5005018;28;20220;-60
2023/12/23 04:23:01;;;;;;;1.67;1.37;;;11.90;67.50;;;;;;5002701;28;20212;-60
2023/12/23 04:25:26;;;;;;;3.40;1.30;;;12.00;67.20;;;;;;5003460;28;20576;-59
2023/12/23 04:27:53;;;;;;;1.93;1.20;;;11.90;66.60;;;;;;5003357;28;20284;-59
2023/12/23 04:30:19;;;;;;;2.40;1.13;;;11.90;66.50;;;;;;5005172;28;20673;-61
2023/12/23 04:32:44;;;;;;;2.30;1.20;;;11.80;66.10;;;;;;5004804;28;20468;-60
2023/12/23 04:35:10;;;;;;;2.20;1.13;;;11.70;65.60;;;;;;5000312;28;20206;-60
2023/12/23 04:37:41;;;;;;;1.63;1.30;;;11.70;66.20;;;;;;5004083;28;20178;-60
2023/12/23 04:40:08;;;;;;;2.23;1.20;;;11.80;66.20;;;;;;5002236;28;20179;-60
2023/12/23 04:42:33;;;;;;;1.10;1.00;;;11.90;65.60;;;;;;5004452;28;20413;-61
2023/12/23 04:44:59;;;;;;;1.13;0.83;;;12.00;65.40;;;;;;5001966;28;20417;-61
2023/12/23 04:47:24;;;;;;;5.53;1.10;;;12.00;65.60;;;;;;5003211;28;20191;-60
2023/12/23 04:49:50;;;;;;;2.60;1.30;;;12.10;64.30;;;;;;5003535;28;20561;-61
2023/12/23 04:52:15;;;;;;;3.93;1.40;;;11.90;63.50;;;;;;5002095;28;20187;-61
2023/12/23 04:54:41;;;;;;;1.43;1.33;;;12.00;64.00;;;;;;5003960;28;20186;-61
2023/12/23 04:57:06;;;;;;;6.00;2.30;;;12.20;63.60;;;;;;5001516;28;20206;-60
2023/12/23 04:59:32;;;;;;;1.73;1.00;;;12.30;63.10;;;;;;5003764;28;20609;-60
2023/12/23 05:01:58;;;;;;;2.77;1.20;;;12.30;62.30;;;;;;5002309;28;20226;-60
2023/12/23 05:04:23;;;;;;;1.87;1.40;;;12.30;62.20;;;;;;5002582;28;20574;-60
2023/12/23 05:06:49;;;;;;;1.97;0.90;;;12.50;62.10;;;;;;5002993;28;20467;-59
2023/12/23 05:09:14;;;;;;;5.37;1.20;;;12.40;61.00;;;;;;5001362;28;20286;-58
2023/12/23 05:11:42;;;;;;;1.80;1.10;;;12.20;61.20;;;;;;5004104;28;20554;-60
2023/12/23 05:14:08;;;;;;;2.30;1.10;;;12.30;61.70;;;;;;5000780;28;20178;-60
2023/12/23 05:16:33;;;;;;;1.90;1.00;;;12.10;61.00;;;;;;4998424;28;20528;-60
2023/12/23 05:18:59;;;;;;;1.60;1.20;;;12.10;61.60;;;;;;5001589;28;20708;-60
2023/12/23 05:21:25;;;;;;;2.97;1.13;;;12.10;61.60;;;;;;5002656;28;20598;-59
2023/12/23 05:23:50;;;;;;;0.93;0.80;;;12.30;61.40;;;;;;5003035;28;20190;-60
2023/12/23 05:26:20;;;;;;;1.83;0.93;;;12.30;60.90;;;;;;5000807;28;20314;-60
2023/12/23 05:28:45;;;;;;;2.20;1.03;;;12.20;60.80;;;;;;5003424;28;20597;-59
2023/12/23 05:31:11;;;;;;;3.33;1.47;;;12.50;60.60;;;;;;5006447;28;20445;-60
2023/12/23 05:33:37;;;;;;;2.37;0.97;;;12.40;60.00;;;;;;5009732;28;20194;-59
2023/12/23 05:36:02;;;;;;;2.20;2.00;;;12.20;60.80;;;;;;5000527;28;20646;-60
2023/12/23 05:38:28;;;;;;;0.97;0.83;;;12.20;60.50;;;;;;5002068;28;20182;-60
2023/12/23 05:40:54;;;;;;;1.57;0.80;;;12.20;60.70;;;;;;5002739;28;20249;-58
2023/12/23 05:43:19;;;;;;;1.00;0.90;;;12.10;61.30;;;;;;5001628;28;20175;-60
2023/12/23 05:45:45;;;;;;;1.10;1.00;;;12.00;62.00;;;;;;5002605;28;20206;-60
2023/12/23 05:48:10;;;;;;;3.13;0.80;;;12.20;62.20;;;;;;4999678;28;20725;-60
2023/12/23 05:50:36;;;;;;;4.70;4.20;;;12.20;62.00;;;;;;5003216;28;20543;-58
2023/12/23 05:53:02;;;;;;;5.00;3.57;;;12.30;62.50;;;;;;5001063;28;20182;-60
2023/12/23 05:55:27;;;;;;;1.10;0.90;;;12.10;62.80;;;;;;5001780;28;20210;-59
2023/12/23 05:57:53;;;;;;;0.80;0.70;;;12.20;63.40;;;;;;5002155;28;20190;-59
2023/12/23 06:00:20;;;;;;;1.40;1.30;;;12.20;64.10;;;;;;5000808;28;20268;-60
2023/12/23 06:02:46;;;;;;;1.20;1.10;;;12.00;64.50;;;;;;5003247;28;20190;-59
2023/12/23 06:05:11;;;;;;;0.83;0.70;;;11.90;65.10;;;;;;4999333;28;20958;-58
2023/12/23 06:07:37;;;;;;;0.67;0.63;;;11.90;65.40;;;;;;5003177;28;20439;-58
2023/12/23 06:10:03;;;;;;;1.57;0.90;;;11.90;64.90;;;;;;5000328;28;20533;-60
2023/12/23 06:12:29;;;;;;;0.80;0.80;;;12.00;65.30;;;;;;5002379;28;20182;-60
2023/12/23 06:14:57;;;;;;;0.90;0.90;;;12.10;65.80;;;;;;5000795;28;20503;-59
2023/12/23 06:17:23;;;;;;;1.73;1.27;;;12.10;65.20;;;;;;5001520;28;20183;-58
2023/12/23 06:19:48;;;;;;;2.00;1.17;;;12.10;65.00;;;;;;5002013;28;20440;-60
2023/12/23 06:22:14;;;;;;;1.63;1.53;;;11.90;65.00;;;;;;5000118;28;20217;-60
2023/12/23 06:24:39;;;;;;;1.40;1.30;;;11.90;65.40;;;;;;5002359;28;20507;-60
2023/12/23 06:27:05;;;;;;;1.07;0.80;;;12.10;65.70;;;;;;5000104;28;20206;-60
2023/12/23 06:29:30;;;;;;;1.20;0.80;;;12.00;65.80;;;;;;5002040;28;20182;-59
2023/12/23 06:32:00;;;;;;;2.50;0.70;;;11.90;65.60;;;;;;5001021;28;20608;-60
2023/12/23 06:34:25;;;;;;;1.60;0.70;;;11.90;66.20;;;;;;5001427;28;20190;-60
2023/12/23 06:36:51;;;;;;;0.97;0.50;;;12.10;66.30;;;;;;5001441;28;20448;-59
2023/12/23 06:39:16;;;;;;;0.60;0.50;;;12.00;65.90;;;;;;5000005;28;20208;-59
2023/12/23 06:41:42;;;;;;;0.70;0.70;;;12.00;66.10;;;;;;5003570;28;20589;-60
2023/12/23 06:44:08;;;;;;;0.80;0.63;;;11.90;66.40;;;;;;4999539;28;20254;-60
2023/12/23 06:46:33;;;;;;;1.60;0.87;;;11.80;66.60;;;;;;5001709;28;20558;-59
2023/12/23 06:48:59;;;;;;;1.90;0.70;;;11.80;67.20;;;;;;5000238;28;20220;-60
2023/12/23 06:51:24;;;;;;;0.50;0.50;;;11.90;67.30;;;;;;5001126;28;20213;-60
2023/12/23 06:53:50;;;;;;;1.60;0.60;;;11.80;67.00;;;;;;5001658;28;20189;-58
2023/12/23 06:56:16;;;;;;;0.57;0.57;;;11.60;67.10;;;;;;4999395;28;20206;-60
2023/12/23 06:58:43;;;;;;;0.70;0.50;;;11.80;68.20;;;;;;5002382;28;20543;-60
2023/12/23 07:01:08;;;;;;;1.10;0.70;;;11.80;68.20;;;;;;4998754;28;20301;-60
2023/12/23 07:03:34;;;;;;;2.10;1.70;;;11.80;67.90;;;;;;4997448;28;21078;-59
2023/12/23 07:05:59;;;;;;;0.50;0.50;;;12.00;67.40;;;;;;5002109;28;20193;-60
2023/12/23 07:08:25;;;;;;;0.90;0.60;;;11.70;67.60;;;;;;5001232;28;20195;-59
2023/12/23 07:10:51;;;;;;;2.40;0.63;;;11.80;68.30;;;;;;5000963;28;20280;-60
2023/12/23 07:13:16;;;;;;;0.50;0.50;;;11.70;67.80;;;;;;5000110;28;20191;-59
2023/12/23 07:15:42;;;;;;;0.60;0.60;;;11.50;68.00;;;;;;5001601;28;20209;-60
2023/12/23 07:18:09;;;;;;;0.73;0.60;;;11.60;68.50;;;;;;4999281;28;20730;-59
2023/12/23 07:20:34;;;;;;;0.57;0.57;;;11.70;68.10;;;;;;4997636;28;20252;-59
2023/12/23 07:23:00;;;;;;;0.60;0.60;;;11.90;67.80;;;;;;5000234;28;20461;-59
2023/12/23 07:25:25;;;;;;;0.50;0.50;;;11.90;66.90;;;;;;5000311;28;20202;-60
2023/12/23 07:27:51;;;;;;;1.37;1.20;;;12.00;67.50;;;;;;5001271;28;20182;-60
2023/12/23 07:30:16;;;;;;;1.27;1.17;;;12.10;66.30;;;;;;5000203;28;20182;-59
2023/12/23 07:32:42;;;;;;;1.13;1.00;;;11.80;66.40;;;;;;5002320;28;20247;-60
2023/12/23 07:35:08;;;;;;;1.33;0.70;;;11.80;66.80;;;;;;4998252;28;20214;-60
2023/12/23 07:37:34;;;;;;;1.10;1.00;;;11.70;67.10;;;;;;5002099;28;20531;-60
2023/12/23 07:39:59;;;;;;;0.73;0.73;;;11.70;67.50;;;;;;4999679;28;20428;-60
2023/12/23 07:42:25;;;;;;;1.10;0.80;;;11.70;67.90;;;;;;5001856;28;20242;-59
2023/12/23 07:44:50;;;;;;;1.53;0.60;;;11.60;67.30;;;;;;5000632;28;20198;-60
2023/12/23 07:47:17;;;;;;;2.63;0.70;;;11.60;67.70;;;;;;4999828;28;20757;-60
2023/12/23 07:49:42;;;;;;;0.60;0.60;;;11.70;67.60;;;;;;5001780;28;20672;-60
2023/12/23 07:52:08;;;;;;;1.63;0.87;;;11.90;67.70;;;;;;4998722;28;20434;-60
2023/12/23 07:54:34;;;;;;;0.70;0.50;;;11.70;66.90;;;;;;5001266;28;20181;-60
2023/12/23 07:56:59;;;;;;;1.43;0.90;;;11.50;66.50;;;;;;4999978;28;20616;-60
2023/12/23 07:59:25;;;;;;;1.47;0.63;;;11.60;66.50;;;;;;5000341;28;20417;-60
2023/12/23 08:01:51;;;;;;;1.53;0.70;;;11.50;66.00;;;;;;5001036;28;20700;-60
2023/12/23 08:04:16;;;;;;;0.80;0.50;;;11.40;66.40;;;;;;4999614;28;20190;-60
2023/12/23 08:06:42;;;;;;;0.70;0.60;;;11.60;65.90;;;;;;5001174;28;20542;-60
2023/12/23 08:09:08;;;;;;;1.43;0.70;;;11.50;65.30;;;;;;5003514;28;20218;-59
2023/12/23 08:11:34;;;;;;;0.90;0.67;;;11.40;64.90;;;;;;5005850;28;20174;-60
2023/12/23 08:14:02;;;;;;;0.60;0.50;;;11.70;65.20;;;;;;5003393;28;20185;-60
2023/12/23 08:16:28;;;;;;;1.67;0.70;;;11.60;64.40;;;;;;5003933;28;20509;-60
2023/12/23 08:18:54;;;;;;;0.70;0.70;;;11.80;64.80;;;;;;5003710;28;20508;-58
2023/12/23 08:21:21;;;;;;;3.43;0.70;;;11.80;64.30;;;;;;5003312;28;20707;-60
2023/12/23 08:23:46;;;;;;;1.00;0.67;;;12.00;64.10;;;;;;5005055;28;20190;-60
2023/12/23 08:26:12;;;;;;;0.67;0.50;;;12.00;63.50;;;;;;5001552;28;20467;-60
2023/12/23 08:28:38;;;;;;;1.10;0.67;;;12.10;63.40;;;;;;5005195;28;20190;-60
2023/12/23 08:31:05;;;;;;;0.60;0.60;;;12.00;63.30;;;;;;5005035;28;20269;-60
2023/12/23 08:33:32;;;;;;;0.87;0.60;;;12.10;63.30;;;;;;5010065;28;20193;-60
2023/12/23 08:35:58;;;;;;;0.60;0.57;;;12.20;63.50;;;;;;5002612;28;20436;-59
2023/12/23 08:38:24;;;;;;;1.30;0.57;;;12.20;63.40;;;;;;5003743;28;20428;-61
2023/12/23 08:40:49;;;;;;;0.50;0.50;;;12.20;63.20;;;;;;5004791;28;20472;-59
2023/12/23 08:43:16;;;;;;;0.70;0.70;;;12.20;62.90;;;;;;5002564;28;20659;-59
2023/12/23 08:45:42;;;;;;;0.60;0.60;;;12.40;63.00;;;;;;5004263;28;20212;-60
2023/12/23 08:48:08;;;;;;;0.50;0.50;;;12.40;61.60;;;;;;5001666;28;20860;-59
2023/12/23 08:50:34;;;;;;;0.80;0.67;;;12.20;61.30;;;;;;5004732;28;20186;-59
2023/12/23 08:52:59;;;;;;;0.83;0.60;;;12.20;61.70;;;;;;5002840;28;20420;-59
2023/12/23 08:55:25;;;;;;;3.03;0.60;;;12.20;60.90;;;;;;5002780;28;20198;-59
2023/12/23 08:57:50;;;;;;;0.70;0.70;;;12.00;60.70;;;;;;5003843;28;20278;-59
2023/12/23 09:00:16;;;;;;;0.77;0.50;;;11.90;61.20;;;;;;5002118;28;20248;-60
2023/12/23 09:02:42;;;;;;;1.50;0.80;;;12.00;61.20;;;;;;5004746;28;20182;-59
2023/12/23 09:05:08;;;;;;;0.90;0.90;;;12.00;60.80;;;;;;5000634;28;20329;-59
2023/12/23 09:07:33;;;;;;;0.63;0.63;;;11.90;60.60;;;;;;5004421;28;20720;-60
2023/12/23 09:09:59;;;;;;;0.60;0.60;;;11.90;60.70;;;;;;5002245;28;20190;-60
2023/12/23 09:12:24;;;;;;;0.50;0.50;;;11.80;61.20;;;;;;5003055;28;20611;-60
2023/12/23 09:14:51;;;;;;;0.60;0.50;;;12.00;61.00;;;;;;5002826;28;20186;-59
2023/12/23 09:17:16;;;;;;;1.97;0.60;;;12.00;60.70;;;;;;5001987;28;20606;-60
2023/12/23 09:19:42;;;;;;;0.50;0.50;;;12.10;60.90;;;;;;5004877;28;20441;-58
2023/12/23 09:22:08;;;;;;;0.60;0.60;;;12.20;60.90;;;;;;5000825;28;20314;-59
2023/12/23 09:24:34;;;;;;;0.80;0.63;;;12.10;60.60;;;;;;5003552;28;20314;-60
2023/12/23 09:27:00;;;;;;;0.60;0.50;;;12.20;60.80;;;;;;5002195;28;20280;-59
2023/12/23 09:29:25;;;;;;;0.50;0.50;;;12.20;60.80;;;;;;5002562;28;20695;-59
2023/12/23 09:31:51;;;;;;;0.63;0.63;;;12.30;60.70;;;;;;5003753;28;20300;-60
2023/12/23 09:34:17;;;;;;;0.50;0.50;;;12.20;60.50;;;;;;5001928;28;20174;-61
2023/12/23 09:36:42;;;;;;;0.80;0.50;;;12.10;60.40;;;;;;5003105;28;20233;-60
2023/12/23 09:39:08;;;;;;;0.50;0.50;;;12.10;60.70;;;;;;5000544;28;20673;-60
2023/12/23 09:41:34;;;;;;;1.20;0.40;;;12.10;60.70;;;;;;5003872;28;20214;-59
2023/12/23 09:44:00;;;;;;;0.50;0.50;;;12.40;60.80;;;;;;5001925;28;20273;-60
2023/12/23 09:46:26;;;;;;;0.50;0.50;;;12.60;60.00;;;;;;5001929;28;20512;-59
2023/12/23 09:48:52;;;;;;;0.60;0.50;;;12.40;59.20;;;;;;5002512;28;20428;-58
2023/12/23 09:51:17;;;;;;;0.50;0.50;;;12.40;59.70;;;;;;5001481;28;20513;-59
2023/12/23 09:53:47;;;;;;;0.60;0.60;;;12.00;60.40;;;;;;5006132;28;20190;-59
2023/12/23 09:56:13;;;;;;;0.63;0.50;;;11.90;60.40;;;;;;5000132;28;20203;-59
2023/12/23 09:58:41;;;;;;;0.80;0.60;;;11.90;60.90;;;;;;5003206;28;20424;-59
2023/12/23 10:01:06;;;;;;;0.70;0.50;;;12.20;60.60;;;;;;5001453;28;20885;-59
2023/12/23 10:03:32;;;;;;;0.60;0.50;;;12.00;60.00;;;;;;5003473;28;20669;-59
2023/12/23 10:06:00;;;;;;;0.70;0.70;;;12.20;60.30;;;;;;5001982;28;20234;-60
2023/12/23 10:08:27;;;;;;;1.00;0.90;;;12.30;60.00;;;;;;5003757;28;20186;-60
2023/12/23 10:10:53;;;;;;;0.60;0.50;;;12.50;59.60;;;;;;5002208;28;20425;-60
2023/12/23 10:13:18;;;;;;;0.50;0.50;;;12.50;59.30;;;;;;5001373;28;20456;-60
2023/12/23 10:15:45;;;;;;;0.60;0.60;;;12.30;59.20;;;;;;5004592;28;20226;-60
2023/12/23 10:18:12;;;;;;;0.50;0.50;;;12.20;59.90;;;;;;5003500;28;20186;-59
2023/12/23 10:20:37;;;;;;;0.50;0.50;;;12.20;59.80;;;;;;5003439;28;20468;-60
2023/12/23 10:23:03;;;;;;;0.50;0.50;;;12.00;59.60;;;;;;5000743;28;20478;-60
2023/12/23 10:25:30;;;;;;;0.50;0.50;;;12.10;60.10;;;;;;5001656;28;20787;-59
2023/12/23 10:28:00;;;;;;;0.50;0.50;;;12.00;59.70;;;;;;5001875;28;20186;-61
2023/12/23 10:30:28;;;;;;;0.60;0.60;;;12.10;60.00;;;;;;5002105;28;20435;-60
2023/12/23 10:32:57;;;;;;;0.87;0.50;;;12.00;59.80;;;;;;5001403;28;20781;-60
2023/12/23 10:35:25;;;;;;;0.50;0.50;;;12.10;60.00;;;;;;5002065;28;20486;-60
2023/12/23 10:37:58;;;;;;;1.00;0.60;;;12.30;59.60;;;;;;5002224;28;20420;-59
2023/12/23 10:40:25;;;;;;;0.50;0.50;;;12.40;59.50;;;;;;5003439;28;20420;-59
2023/12/23 10:42:51;;;;;;;0.50;0.50;;;12.20;59.70;;;;;;5002146;28;20433;-60
2023/12/23 10:45:19;;;;;;;2.60;0.50;;;12.30;59.80;;;;;;5000627;28;20446;-60
2023/12/23 10:47:47;;;;;;;0.50;0.50;;;12.70;59.80;;;;;;5003265;28;20433;-60
2023/12/23 10:50:14;;;;;;;1.33;0.50;;;12.70;59.20;;;;;;4999629;28;20803;-59
2023/12/23 10:52:41;;;;;;;0.50;0.50;;;12.60;59.30;;;;;;5003110;28;20428;-59
2023/12/23 10:55:09;;;;;;;0.60;0.60;;;12.70;59.30;;;;;;5001626;28;20418;-60
2023/12/23 10:57:36;;;;;;;0.50;0.50;;;12.80;59.20;;;;;;4998341;28;20516;-59
2023/12/23 11:00:03;;;;;;;1.23;0.50;;;12.60;58.80;;;;;;4999979;28;20437;-60
2023/12/23 11:02:29;;;;;;;1.07;0.60;;;12.40;59.60;;;;;;5003161;28;20608;-61
2023/12/23 11:04:57;;;;;;;0.50;0.50;;;12.40;59.80;;;;;;5000532;28;20539;-60
2023/12/23 11:07:30;;;;;;;1.57;0.80;;;12.40;59.70;;;;;;5003275;28;20422;-60
2023/12/23 11:10:01;;;;;;;0.53;0.53;;;12.50;59.80;;;;;;5000660;28;20540;-60
2023/12/23 11:12:28;;;;;;;0.60;0.60;;;12.30;59.50;;;;;;5001514;28;20802;-58
2023/12/23 11:14:54;;;;;;;0.50;0.50;;;12.20;59.80;;;;;;5000636;28;20421;-60
2023/12/23 11:17:25;;;;;;;0.50;0.50;;;12.20;60.10;;;;;;5000537;28;20430;-60
2023/12/23 11:19:51;;;;;;;0.60;0.53;;;12.10;59.90;;;;;;5002003;28;20182;-59
2023/12/23 11:22:24;;;;;;;0.50;0.50;;;12.10;59.90;;;;;;5000214;28;20479;-59
2023/12/23 11:24:50;;;;;;;0.40;0.40;;;12.30;59.80;;;;;;5001404;28;20197;-60
2023/12/23 11:27:32;;;;;;;0.53;0.50;;;12.30;59.80;;;;;;5001681;28;20426;-58
2023/12/23 11:29:59;;;;;;;0.67;0.60;;;12.20;59.80;;;;;;5000597;28;20774;-59
2023/12/23 11:32:25;;;;;;;0.50;0.50;;;12.30;59.90;;;;;;5006353;28;20526;-59
2023/12/23 11:34:52;;;;;;;0.50;0.50;;;12.80;59.60;;;;;;5003820;28;20425;-60
2023/12/23 11:37:17;;;;;;;0.60;0.50;;;12.80;58.80;;;;;;5000121;28;20422;-59
2023/12/23 11:39:44;;;;;;;0.50;0.50;;;12.40;59.10;;;;;;5000890;28;20436;-59
2023/12/23 11:42:10;;;;;;;0.50;0.40;;;12.10;59.70;;;;;;4998493;28;20595;-61
2023/12/23 11:44:36;;;;;;;0.50;0.50;;;12.40;59.80;;;;;;5002058;28;20425;-59
2023/12/23 11:47:04;;;;;;;0.60;0.60;;;12.40;59.40;;;;;;5003715;28;20461;-60
2023/12/23 11:49:30;;;;;;;0.50;0.50;;;12.30;59.40;;;;;;5005621;28;20738;-59
2023/12/23 11:51:55;;;;;;;0.60;0.50;;;12.40;59.70;;;;;;5004335;28;20421;-60
2023/12/23 11:54:21;;;;;;;0.50;0.50;;;12.60;59.50;;;;;;5004023;28;20179;-60
2023/12/23 11:56:46;;;;;;;0.90;0.63;;;12.80;59.10;;;;;;5005353;28;20197;-60
2023/12/23 11:59:12;;;;;;;0.60;0.60;;;12.80;59.00;;;;;;5003061;28;20179;-59
2023/12/23 12:01:38;;;;;;;0.57;0.47;;;12.70;58.50;;;;;;5005511;28;20228;-60
2023/12/23 12:04:05;;;;;;;0.53;0.53;;;12.70;58.60;;;;;;5004810;28;20204;-59
2023/12/23 12:06:30;;;;;;;0.60;0.60;;;13.00;58.70;;;;;;5004620;28;20296;-60
2023/12/23 12:08:57;;;;;;;0.50;0.50;;;12.70;58.90;;;;;;5004429;28;20544;-59
2023/12/23 12:11:24;;;;;;;0.60;0.50;;;12.80;59.00;;;;;;5003963;28;20189;-60
2023/12/23 12:13:50;;;;;;;0.70;0.60;;;12.90;58.60;;;;;;5005067;28;20809;-59
2023/12/23 12:16:16;;;;;;;0.60;0.50;;;13.00;58.30;;;;;;5003637;28;20890;-60
2023/12/23 12:18:42;;;;;;;0.53;0.50;;;12.80;58.30;;;;;;5005744;28;20261;-60
2023/12/23 12:21:08;;;;;;;0.50;0.50;;;12.80;58.60;;;;;;5002450;28;20564;-60
2023/12/23 12:23:34;;;;;;;0.50;0.50;;;12.60;58.60;;;;;;5005503;28;20182;-60
2023/12/23 12:26:00;;;;;;;0.70;0.50;;;12.40;58.90;;;;;;5002855;28;20568;-60
2023/12/23 12:28:25;;;;;;;0.60;0.60;;;12.50;59.30;;;;;;5004291;28;20422;-60
2023/12/23 12:30:51;;;;;;;0.70;0.60;;;12.60;58.90;;;;;;5003973;28;20189;-59
2023/12/23 12:33:17;;;;;;;0.60;0.60;;;12.60;58.70;;;;;;5003153;28;20237;-60
2023/12/23 12:35:42;;;;;;;1.43;0.60;;;12.80;58.90;;;;;;5004676;28;20300;-59
2023/12/23 12:38:09;;;;;;;0.60;0.60;;;12.70;58.80;;;;;;5002297;28;20191;-59
2023/12/23 12:40:35;;;;;;;0.83;0.50;;;12.70;58.90;;;;;;5003883;28;20705;-59